sensor_id;sensor_type;location;lat;lon;timestamp;P1;durP1;ratioP1;P2;durP2;ratioP2
38190;SDS011;25191;47.510;19.124;2023-03-25T00:03:56;240.45;;;217.13;;
38190;SDS011;25191;47.510;19.124;2023-03-25T00:14:04;240.23;;;217.13;;
38190;SDS011;25191;47.510;19.124;2023-03-25T00:24:04;265.38;;;239.75;;
38190;SDS011;25191;47.510;19.124;2023-03-25T00:34:05;263.48;;;237.75;;
38190;SDS011;25191;47.510;19.124;2023-03-25T00:44:06;238.52;;;215.63;;
38190;SDS011;25191;47.510;19.124;2023-03-25T00:54:07;249.75;;;225.63;;
38190;SDS011;25191;47.510;19.124;2023-03-25T01:04:09;250.57;;;226.50;;
38190;SDS011;25191;47.510;19.124;2023-03-25T01:24:21;270.33;;;244.07;;
38190;SDS011;25191;47.510;19.124;2023-03-25T01:34:21;273.53;;;247.00;;
38190;SDS011;25191;47.510;19.124;2023-03-25T01:54:23;262.45;;;237.00;;
38190;SDS011;25191;47.510;19.124;2023-03-25T02:04:28;257.73;;;232.73;;
38190;SDS011;25191;47.510;19.124;2023-03-25T02:14:34;263.58;;;238.13;;
38190;SDS011;25191;47.510;19.124;2023-03-25T02:45:31;260.20;;;234.98;;
38190;SDS011;25191;47.510;19.124;2023-03-25T02:55:35;261.33;;;236.15;;
38190;SDS011;25191;47.510;19.124;2023-03-25T03:05:37;286.30;;;258.30;;
38190;SDS011;25191;47.510;19.124;2023-03-25T03:35:51;278.38;;;251.13;;
38190;SDS011;25191;47.510;19.124;2023-03-25T03:46:01;258.30;;;233.45;;
38190;SDS011;25191;47.510;19.124;2023-03-25T03:56:16;250.23;;;226.25;;
38190;SDS011;25191;47.510;19.124;2023-03-25T04:06:23;250.68;;;226.73;;
38190;SDS011;25191;47.510;19.124;2023-03-25T04:16:35;267.48;;;241.63;;
38190;SDS011;25191;47.510;19.124;2023-03-25T04:26:36;287.77;;;259.98;;
38190;SDS011;25191;47.510;19.124;2023-03-25T04:36:37;283.63;;;256.08;;
38190;SDS011;25191;47.510;19.124;2023-03-25T04:46:37;276.10;;;249.25;;
38190;SDS011;25191;47.510;19.124;2023-03-25T04:56:38;285.45;;;257.77;;
38190;SDS011;25191;47.510;19.124;2023-03-25T05:06:40;278.40;;;251.38;;
38190;SDS011;25191;47.510;19.124;2023-03-25T05:16:42;266.80;;;241.10;;
38190;SDS011;25191;47.510;19.124;2023-03-25T05:26:43;284.35;;;256.75;;
38190;SDS011;25191;47.510;19.124;2023-03-25T05:36:44;259.42;;;234.48;;
38190;SDS011;25191;47.510;19.124;2023-03-25T05:46:47;297.02;;;268.25;;
38190;SDS011;25191;47.510;19.124;2023-03-25T05:56:47;264.08;;;238.63;;
38190;SDS011;25191;47.510;19.124;2023-03-25T06:06:48;272.25;;;245.95;;
38190;SDS011;25191;47.510;19.124;2023-03-25T06:16:49;257.03;;;232.07;;
38190;SDS011;25191;47.510;19.124;2023-03-25T06:26:50;277.10;;;250.18;;
38190;SDS011;25191;47.510;19.124;2023-03-25T06:36:50;264.17;;;238.60;;
38190;SDS011;25191;47.510;19.124;2023-03-25T06:46:53;262.95;;;237.55;;
38190;SDS011;25191;47.510;19.124;2023-03-25T06:56:53;286.40;;;258.60;;
38190;SDS011;25191;47.510;19.124;2023-03-25T07:06:54;258.80;;;233.65;;
38190;SDS011;25191;47.510;19.124;2023-03-25T07:16:54;256.02;;;231.30;;
38190;SDS011;25191;47.510;19.124;2023-03-25T07:26:55;256.48;;;231.80;;
38190;SDS011;25191;47.510;19.124;2023-03-25T07:36:55;263.83;;;237.82;;
38190;SDS011;25191;47.510;19.124;2023-03-25T07:46:58;284.77;;;257.20;;
38190;SDS011;25191;47.510;19.124;2023-03-25T08:06:59;280.67;;;253.40;;
38190;SDS011;25191;47.510;19.124;2023-03-25T08:17:00;269.67;;;243.38;;
38190;SDS011;25191;47.510;19.124;2023-03-25T08:27:00;268.45;;;242.00;;
38190;SDS011;25191;47.510;19.124;2023-03-25T08:37:00;263.50;;;237.43;;
38190;SDS011;25191;47.510;19.124;2023-03-25T08:47:01;280.75;;;253.13;;
38190;SDS011;25191;47.510;19.124;2023-03-25T08:57:01;263.58;;;237.55;;
38190;SDS011;25191;47.510;19.124;2023-03-25T09:07:02;277.55;;;250.50;;
38190;SDS011;25191;47.510;19.124;2023-03-25T09:17:02;282.30;;;254.60;;
38190;SDS011;25191;47.510;19.124;2023-03-25T09:37:07;256.05;;;231.38;;
38190;SDS011;25191;47.510;19.124;2023-03-25T09:47:08;255.98;;;230.80;;
38190;SDS011;25191;47.510;19.124;2023-03-25T09:57:12;250.82;;;226.40;;
38190;SDS011;25191;47.510;19.124;2023-03-25T10:28:48;285.80;;;257.58;;
38190;SDS011;25191;47.510;19.124;2023-03-25T10:38:53;268.95;;;242.57;;
38190;SDS011;25191;47.510;19.124;2023-03-25T10:48:54;257.42;;;232.25;;
38190;SDS011;25191;47.510;19.124;2023-03-25T10:58:55;262.85;;;237.18;;
38190;SDS011;25191;47.510;19.124;2023-03-25T11:19:05;255.82;;;230.65;;
38190;SDS011;25191;47.510;19.124;2023-03-25T11:29:13;280.40;;;252.88;;
38190;SDS011;25191;47.510;19.124;2023-03-25T11:39:18;252.68;;;228.02;;
38190;SDS011;25191;47.510;19.124;2023-03-25T11:49:35;262.58;;;236.93;;
38190;SDS011;25191;47.510;19.124;2023-03-25T11:59:38;265.60;;;239.48;;
38190;SDS011;25191;47.510;19.124;2023-03-25T12:09:52;287.92;;;259.40;;
38190;SDS011;25191;47.510;19.124;2023-03-25T12:40:49;263.55;;;237.27;;
38190;SDS011;25191;47.510;19.124;2023-03-25T12:51:06;254.07;;;228.63;;
38190;SDS011;25191;47.510;19.124;2023-03-25T13:12:01;302.45;;;272.10;;
38190;SDS011;25191;47.510;19.124;2023-03-25T13:22:15;305.23;;;274.48;;
38190;SDS011;25191;47.510;19.124;2023-03-25T13:42:40;290.08;;;259.88;;
38190;SDS011;25191;47.510;19.124;2023-03-25T13:52:53;262.02;;;235.95;;
38190;SDS011;25191;47.510;19.124;2023-03-25T14:13:19;163.68;;;148.05;;
38190;SDS011;25191;47.510;19.124;2023-03-25T14:23:33;160.40;;;145.45;;
38190;SDS011;25191;47.510;19.124;2023-03-25T14:44:09;156.27;;;141.68;;
38190;SDS011;25191;47.510;19.124;2023-03-25T14:54:31;155.55;;;141.25;;
38190;SDS011;25191;47.510;19.124;2023-03-25T15:04:33;154.57;;;140.68;;
38190;SDS011;25191;47.510;19.124;2023-03-25T15:14:38;166.48;;;151.13;;
38190;SDS011;25191;47.510;19.124;2023-03-25T15:24:41;166.75;;;151.23;;
38190;SDS011;25191;47.510;19.124;2023-03-25T15:45:21;155.35;;;141.43;;
38190;SDS011;25191;47.510;19.124;2023-03-25T16:06:16;140.65;;;128.55;;
38190;SDS011;25191;47.510;19.124;2023-03-25T16:16:19;147.00;;;133.80;;
38190;SDS011;25191;47.510;19.124;2023-03-25T16:26:40;155.23;;;141.43;;
38190;SDS011;25191;47.510;19.124;2023-03-25T16:36:44;146.95;;;134.10;;
38190;SDS011;25191;47.510;19.124;2023-03-25T16:46:47;152.05;;;138.45;;
38190;SDS011;25191;47.510;19.124;2023-03-25T16:56:50;134.68;;;123.20;;
38190;SDS011;25191;47.510;19.124;2023-03-25T17:06:53;131.23;;;120.07;;
38190;SDS011;25191;47.510;19.124;2023-03-25T17:17:00;142.95;;;130.80;;
38190;SDS011;25191;47.510;19.124;2023-03-25T17:27:23;157.98;;;143.93;;
38190;SDS011;25191;47.510;19.124;2023-03-25T17:37:24;150.52;;;137.35;;
38190;SDS011;25191;47.510;19.124;2023-03-25T17:47:25;150.87;;;137.77;;
38190;SDS011;25191;47.510;19.124;2023-03-25T17:57:26;140.82;;;128.88;;
38190;SDS011;25191;47.510;19.124;2023-03-25T18:07:27;138.75;;;126.90;;
38190;SDS011;25191;47.510;19.124;2023-03-25T18:17:28;149.10;;;136.20;;
38190;SDS011;25191;47.510;19.124;2023-03-25T18:27:31;160.20;;;145.80;;
38190;SDS011;25191;47.510;19.124;2023-03-25T18:37:32;159.70;;;145.55;;
38190;SDS011;25191;47.510;19.124;2023-03-25T18:47:33;171.27;;;155.68;;
38190;SDS011;25191;47.510;19.124;2023-03-25T18:57:34;211.27;;;191.13;;
38190;SDS011;25191;47.510;19.124;2023-03-25T19:07:36;203.25;;;183.68;;
38190;SDS011;25191;47.510;19.124;2023-03-25T19:17:39;212.80;;;192.07;;
38190;SDS011;25191;47.510;19.124;2023-03-25T19:27:40;194.13;;;175.82;;
38190;SDS011;25191;47.510;19.124;2023-03-25T19:37:42;216.00;;;195.23;;
38190;SDS011;25191;47.510;19.124;2023-03-25T19:47:50;200.73;;;181.68;;
38190;SDS011;25191;47.510;19.124;2023-03-25T19:57:52;204.90;;;185.50;;
38190;SDS011;25191;47.510;19.124;2023-03-25T20:07:53;230.43;;;208.47;;
38190;SDS011;25191;47.510;19.124;2023-03-25T20:17:55;207.90;;;188.10;;
38190;SDS011;25191;47.510;19.124;2023-03-25T20:27:56;241.00;;;217.65;;
38190;SDS011;25191;47.510;19.124;2023-03-25T20:37:57;217.35;;;196.68;;
38190;SDS011;25191;47.510;19.124;2023-03-25T20:47:58;225.95;;;204.18;;
38190;SDS011;25191;47.510;19.124;2023-03-25T20:57:59;232.73;;;210.27;;
38190;SDS011;25191;47.510;19.124;2023-03-25T21:08:01;222.63;;;201.38;;
38190;SDS011;25191;47.510;19.124;2023-03-25T21:18:02;230.30;;;208.27;;
38190;SDS011;25191;47.510;19.124;2023-03-25T21:28:03;240.52;;;217.40;;
38190;SDS011;25191;47.510;19.124;2023-03-25T21:38:04;233.05;;;210.77;;
38190;SDS011;25191;47.510;19.124;2023-03-25T21:48:07;255.00;;;230.23;;
38190;SDS011;25191;47.510;19.124;2023-03-25T21:58:07;336.17;;;302.88;;
38190;SDS011;25191;47.510;19.124;2023-03-25T22:08:09;385.07;;;347.10;;
38190;SDS011;25191;47.510;19.124;2023-03-25T22:18:10;389.77;;;351.25;;
38190;SDS011;25191;47.510;19.124;2023-03-25T22:28:12;370.80;;;334.55;;
38190;SDS011;25191;47.510;19.124;2023-03-25T22:38:13;298.05;;;268.92;;
38190;SDS011;25191;47.510;19.124;2023-03-25T22:48:13;312.13;;;281.50;;
38190;SDS011;25191;47.510;19.124;2023-03-25T22:58:14;285.02;;;257.15;;
38190;SDS011;25191;47.510;19.124;2023-03-25T23:08:14;302.15;;;272.45;;
38190;SDS011;25191;47.510;19.124;2023-03-25T23:18:24;303.58;;;273.75;;
38190;SDS011;25191;47.510;19.124;2023-03-25T23:28:26;330.27;;;297.80;;
38190;SDS011;25191;47.510;19.124;2023-03-25T23:38:29;320.17;;;288.90;;
38190;SDS011;25191;47.510;19.124;2023-03-25T23:48:30;338.50;;;305.42;;
38190;SDS011;25191;47.510;19.124;2023-03-25T23:58:32;346.77;;;312.88;;
